createdAt,value
2023-03-24T00:00:24.067Z,59.05
2023-03-24T00:02:56.812Z,59.16
2023-03-24T00:05:28.606Z,59.23
2023-03-24T00:08:02.068Z,59.31
2023-03-24T00:10:35.024Z,59.39
2023-03-24T00:13:07.201Z,59.35
2023-03-24T00:15:38.548Z,59.45
2023-03-24T00:18:10.929Z,59.47
2023-03-24T00:20:42.479Z,59.57
2023-03-24T00:23:14.127Z,59.61
2023-03-24T00:25:45.406Z,59.68
2023-03-24T00:28:16.357Z,59.75
2023-03-24T00:30:52.997Z,59.76
2023-03-24T00:33:25.434Z,59.76
2023-03-24T00:35:57.990Z,59.68
2023-03-24T00:38:29.907Z,59.71
2023-03-24T00:41:01.085Z,59.63
2023-03-24T00:43:32.959Z,59.62
2023-03-24T00:46:06.053Z,59.75
2023-03-24T00:48:38.767Z,59.82
2023-03-24T00:51:11.169Z,59.86
2023-03-24T00:53:43.675Z,59.90
2023-03-24T00:56:15.657Z,60.00
2023-03-24T00:58:46.761Z,59.94
2023-03-24T01:01:17.734Z,60.01
2023-03-24T01:03:50.899Z,60.07
2023-03-24T01:06:23.800Z,60.13
2023-03-24T01:08:56.040Z,60.18
2023-03-24T01:11:28.528Z,60.26
2023-03-24T01:13:59.793Z,60.28
2023-03-24T01:16:31.641Z,60.40
2023-03-24T01:19:02.668Z,60.57
2023-03-24T01:21:35.301Z,60.53
2023-03-24T01:24:07.940Z,60.63
2023-03-24T01:26:39.117Z,60.56
2023-03-24T01:29:10.110Z,60.66
2023-03-24T01:31:41.548Z,60.75
2023-03-24T01:34:12.694Z,60.80
2023-03-24T01:36:43.654Z,60.89
2023-03-24T01:39:14.908Z,60.99
2023-03-24T01:41:46.103Z,60.90
2023-03-24T01:44:33.557Z,60.79
2023-03-24T01:47:07.605Z,60.93
2023-03-24T01:49:43.288Z,61.16
2023-03-24T01:52:19.520Z,61.03
2023-03-24T01:54:53.129Z,61.13
2023-03-24T01:57:31.100Z,61.22
2023-03-24T02:00:08.426Z,61.31
2023-03-24T02:03:01.101Z,61.50
2023-03-24T02:05:36.633Z,61.40
2023-03-24T02:08:13.795Z,61.59
2023-03-24T02:10:46.123Z,61.53
2023-03-24T02:13:17.502Z,61.57
2023-03-24T02:16:02.243Z,61.54
2023-03-24T02:18:45.007Z,61.57
2023-03-24T02:22:05.930Z,61.69
2023-03-24T02:25:11.057Z,61.83
2023-03-24T02:28:05.333Z,61.59
2023-03-24T02:31:24.993Z,61.70
2023-03-24T02:34:22.209Z,61.80
2023-03-24T02:37:27.653Z,61.92
2023-03-24T02:40:15.459Z,61.95
2023-03-24T02:43:01.638Z,62.07
2023-03-24T02:45:38.674Z,62.24
2023-03-24T02:48:24.742Z,62.11
2023-03-24T02:51:03.092Z,62.29
2023-03-24T02:53:41.331Z,62.23
2023-03-24T02:56:27.520Z,62.49
2023-03-24T02:59:04.190Z,62.54
2023-03-24T03:01:43.588Z,62.51
2023-03-24T03:04:34.328Z,62.54
2023-03-24T03:07:09.855Z,62.60
2023-03-24T03:09:44.844Z,62.57
2023-03-24T03:12:19.404Z,62.38
2023-03-24T03:14:54.208Z,62.26
2023-03-24T03:17:30.824Z,62.50
2023-03-24T03:20:08.405Z,62.34
2023-03-24T03:22:44.873Z,62.64
2023-03-24T03:25:23.317Z,62.65
2023-03-24T03:27:58.727Z,62.75
2023-03-24T03:30:37.765Z,62.63
2023-03-24T03:33:13.391Z,62.87
2023-03-24T03:35:48.870Z,62.75
2023-03-24T03:38:26.117Z,63.10
2023-03-24T03:40:59.926Z,63.13
2023-03-24T03:43:36.193Z,63.24
2023-03-24T03:46:08.522Z,63.19
2023-03-24T03:48:42.218Z,63.29
2023-03-24T03:51:14.614Z,63.34
2023-03-24T03:53:58.358Z,63.57
2023-03-24T03:56:32.533Z,63.41
2023-03-24T03:59:34.971Z,63.49
2023-03-24T04:02:26.996Z,63.57
2023-03-24T04:05:20.927Z,63.52
2023-03-24T04:08:15.601Z,63.52
2023-03-24T04:11:37.376Z,63.56
2023-03-24T04:14:37.871Z,63.69
2023-03-24T04:17:47.041Z,63.72
2023-03-24T04:20:32.750Z,63.84
2023-03-24T04:23:14.610Z,63.90
2023-03-24T04:25:56.917Z,63.86
2023-03-24T04:28:37.589Z,64.03
2023-03-24T04:31:17.939Z,63.76
2023-03-24T04:33:53.803Z,63.84
2023-03-24T04:36:32.121Z,63.92
2023-03-24T04:39:36.042Z,63.92
2023-03-24T04:42:12.796Z,64.04
2023-03-24T04:44:44.199Z,64.15
2023-03-24T04:47:46.965Z,63.95
2023-03-24T04:50:43.475Z,64.02
2023-03-24T04:53:20.639Z,64.02
2023-03-24T04:56:06.675Z,64.08
2023-03-24T04:58:56.777Z,64.21
2023-03-24T05:01:30.503Z,64.25
2023-03-24T05:04:24.434Z,64.32
2023-03-24T05:06:57.010Z,64.03
2023-03-24T05:09:31.771Z,64.23
2023-03-24T05:12:03.481Z,63.99
2023-03-24T05:14:39.692Z,64.03
2023-03-24T05:17:11.042Z,64.09
2023-03-24T05:19:44.143Z,64.15
2023-03-24T05:22:15.545Z,63.98
2023-03-24T05:24:46.797Z,63.86
2023-03-24T05:27:17.747Z,63.55
2023-03-24T05:29:48.859Z,63.26
2023-03-24T05:32:32.390Z,63.09
2023-03-24T05:35:03.450Z,62.88
2023-03-24T05:37:40.899Z,62.50
2023-03-24T05:40:13.914Z,62.10
2023-03-24T05:42:52.864Z,61.95
2023-03-24T05:45:31.059Z,61.70
2023-03-24T05:48:03.000Z,61.66
2023-03-24T05:50:48.040Z,61.47
2023-03-24T05:53:19.692Z,61.47
2023-03-24T05:56:12.919Z,61.55
2023-03-24T05:59:02.767Z,61.52
2023-03-24T06:01:57.328Z,61.59
2023-03-24T06:04:52.023Z,61.65
2023-03-24T06:07:28.352Z,61.71
2023-03-24T06:10:03.072Z,61.68
2023-03-24T06:12:40.511Z,61.46
2023-03-24T06:15:17.610Z,61.39
2023-03-24T06:17:50.733Z,61.42
2023-03-24T06:20:29.950Z,61.50
2023-03-24T06:23:12.668Z,61.59
2023-03-24T06:26:01.776Z,61.65
2023-03-24T06:28:34.684Z,61.55
2023-03-24T06:31:18.760Z,61.55
2023-03-24T06:33:53.542Z,61.45
2023-03-24T06:36:25.875Z,61.41
2023-03-24T06:38:58.278Z,61.62
2023-03-24T06:41:29.842Z,61.56
2023-03-24T06:44:06.489Z,61.49
2023-03-24T06:46:37.825Z,61.55
2023-03-24T06:49:09.368Z,61.58
2023-03-24T06:51:40.567Z,61.54
2023-03-24T06:54:17.831Z,61.41
2023-03-24T06:56:49.031Z,61.52
2023-03-24T06:59:23.917Z,61.56
2023-03-24T07:01:55.769Z,61.51
2023-03-24T07:04:36.529Z,61.56
2023-03-24T07:07:52.700Z,61.62
2023-03-24T07:10:21.805Z,61.46
2023-03-24T07:12:53.774Z,61.48
2023-03-24T07:15:24.836Z,61.58
2023-03-24T07:17:56.345Z,61.63
2023-03-24T07:20:41.486Z,61.57
2023-03-24T07:23:16.978Z,61.37
2023-03-24T07:26:08.895Z,61.22
2023-03-24T07:28:55.910Z,61.25
2023-03-24T07:31:41.119Z,61.19
2023-03-24T07:34:16.153Z,61.39
2023-03-24T07:36:52.424Z,61.43
2023-03-24T07:39:23.984Z,61.54
2023-03-24T07:41:55.347Z,61.55
2023-03-24T07:44:37.110Z,61.66
2023-03-24T07:47:11.470Z,61.77
2023-03-24T07:49:42.466Z,61.84
2023-03-24T07:52:15.138Z,61.76
2023-03-24T07:54:51.637Z,61.79
2023-03-24T07:57:43.705Z,61.94
2023-03-24T08:00:18.208Z,62.10
2023-03-24T08:03:00.352Z,62.10
2023-03-24T08:05:58.948Z,62.11
2023-03-24T08:08:50.677Z,62.03
2023-03-24T08:11:21.804Z,62.34
2023-03-24T08:13:53.028Z,62.35
2023-03-24T08:16:31.605Z,62.43
2023-03-24T08:19:03.353Z,62.59
2023-03-24T08:21:34.461Z,62.75
2023-03-24T08:24:11.083Z,62.99
2023-03-24T08:26:46.776Z,63.16
2023-03-24T08:29:17.975Z,63.34
2023-03-24T08:31:49.072Z,63.36
2023-03-24T08:34:20.429Z,63.59
2023-03-24T08:36:51.398Z,63.57
2023-03-24T08:39:24.386Z,63.50
2023-03-24T08:41:55.348Z,63.40
2023-03-24T08:44:26.610Z,63.33
2023-03-24T08:46:57.644Z,63.29
2023-03-24T08:49:28.679Z,63.13
2023-03-24T08:51:59.655Z,62.94
2023-03-24T08:54:30.783Z,63.13
2023-03-24T08:57:01.794Z,63.24
2023-03-24T08:59:34.038Z,63.20
2023-03-24T09:02:05.818Z,63.20
2023-03-24T09:04:36.813Z,63.33
2023-03-24T09:07:09.347Z,63.43
2023-03-24T09:09:40.885Z,63.65
2023-03-24T09:12:11.868Z,63.85
2023-03-24T09:14:42.989Z,63.92
2023-03-24T09:17:13.855Z,63.92
2023-03-24T09:19:44.917Z,63.83
2023-03-24T09:22:16.015Z,64.30
2023-03-24T09:24:49.321Z,64.57
2023-03-24T09:27:20.794Z,63.77
2023-03-24T09:29:54.001Z,63.13
2023-03-24T09:32:25.584Z,62.16
2023-03-24T09:34:56.643Z,61.45
2023-03-24T09:37:29.817Z,60.72
2023-03-24T09:40:01.594Z,60.39
2023-03-24T09:42:36.411Z,60.19
2023-03-24T09:45:13.542Z,60.20
2023-03-24T09:47:50.530Z,59.83
2023-03-24T09:50:25.567Z,59.02
2023-03-24T09:52:57.865Z,58.66
2023-03-24T09:55:30.817Z,58.15
2023-03-24T09:58:08.498Z,58.16
2023-03-24T10:00:39.824Z,58.06
2023-03-24T10:03:21.170Z,58.00
2023-03-24T10:05:58.321Z,58.43
2023-03-24T10:08:35.714Z,58.58
2023-03-24T10:11:15.621Z,58.47
2023-03-24T10:14:03.161Z,58.40
2023-03-24T10:16:42.602Z,58.46
2023-03-24T10:19:28.072Z,58.43
2023-03-24T10:22:03.729Z,58.47
2023-03-24T10:24:42.017Z,58.43
2023-03-24T10:27:19.826Z,58.37
2023-03-24T10:29:55.778Z,58.25
2023-03-24T10:32:31.027Z,58.10
2023-03-24T10:35:09.681Z,58.35
2023-03-24T10:37:41.525Z,58.37
2023-03-24T10:40:19.469Z,58.24
2023-03-24T10:43:07.889Z,58.30
2023-03-24T10:45:44.822Z,58.22
2023-03-24T10:48:17.321Z,58.41
2023-03-24T10:50:49.260Z,58.38
2023-03-24T10:53:22.254Z,58.49
2023-03-24T10:55:53.332Z,58.24
2023-03-24T10:58:36.796Z,58.13
2023-03-24T11:01:22.650Z,58.24
2023-03-24T11:03:54.077Z,58.13
2023-03-24T11:06:25.119Z,58.24
2023-03-24T11:12:07.049Z,58.07
2023-03-24T11:14:47.276Z,57.81
2023-03-24T11:17:21.906Z,57.80
2023-03-24T11:19:57.641Z,57.76
2023-03-24T11:22:29.217Z,57.69
2023-03-24T11:25:00.437Z,57.60
2023-03-24T11:27:31.829Z,57.48
2023-03-24T11:30:02.849Z,57.60
2023-03-24T11:32:33.943Z,57.57
2023-03-24T11:35:17.687Z,57.54
2023-03-24T11:37:49.976Z,57.52
2023-03-24T11:40:26.952Z,57.52
2023-03-24T11:43:01.586Z,57.43
2023-03-24T11:45:40.413Z,57.53
2023-03-24T11:48:26.842Z,57.58
2023-03-24T11:50:59.796Z,57.42
2023-03-24T11:53:40.346Z,57.36
2023-03-24T11:56:16.038Z,57.48
2023-03-24T11:58:50.378Z,57.38
2023-03-24T12:01:29.596Z,57.29
2023-03-24T12:04:19.835Z,57.22
2023-03-24T12:07:08.382Z,57.35
2023-03-24T12:09:45.427Z,57.33
2023-03-24T12:12:27.950Z,57.32
2023-03-24T12:15:28.706Z,57.28
2023-03-24T12:18:11.901Z,57.29
2023-03-24T12:20:51.911Z,57.31
2023-03-24T12:23:35.314Z,57.20
2023-03-24T12:26:22.206Z,57.26
2023-03-24T12:29:24.935Z,57.04
2023-03-24T12:32:09.049Z,56.97
2023-03-24T12:35:04.109Z,56.63
2023-03-24T12:37:45.845Z,56.55
2023-03-24T12:40:40.193Z,56.28
2023-03-24T12:43:23.644Z,55.96
2023-03-24T12:45:58.544Z,55.37
2023-03-24T12:49:08.295Z,55.22
2023-03-24T12:51:48.945Z,54.79
2023-03-24T12:54:32.794Z,54.58
2023-03-24T12:57:09.466Z,54.00
2023-03-24T12:59:44.888Z,53.77
2023-03-24T13:02:26.602Z,53.74
2023-03-24T13:05:05.407Z,53.49
2023-03-24T13:07:39.458Z,53.37
2023-03-24T13:10:22.172Z,53.42
2023-03-24T13:12:58.015Z,53.23
2023-03-24T13:15:36.005Z,53.06
2023-03-24T13:18:22.827Z,53.00
2023-03-24T13:20:57.577Z,53.02
2023-03-24T13:23:51.833Z,52.68
2023-03-24T13:26:38.546Z,52.50
2023-03-24T13:29:24.176Z,52.48
2023-03-24T13:31:59.840Z,52.31
2023-03-24T13:34:34.296Z,52.18
2023-03-24T13:37:08.138Z,52.04
2023-03-24T13:39:40.091Z,51.99
2023-03-24T13:42:33.194Z,51.84
2023-03-24T13:45:06.935Z,51.81
2023-03-24T13:47:57.801Z,51.73
2023-03-24T13:50:29.106Z,51.69
2023-03-24T13:53:12.664Z,51.61
2023-03-24T13:55:50.847Z,51.68
2023-03-24T13:58:24.387Z,51.87
2023-03-24T14:01:32.786Z,51.75
2023-03-24T14:04:45.208Z,51.67
2023-03-24T14:07:42.872Z,51.40
2023-03-24T14:13:25.101Z,51.17
2023-03-24T14:15:57.392Z,51.00
2023-03-24T14:19:09.011Z,50.91
2023-03-24T14:21:42.732Z,50.92
2023-03-24T14:24:24.229Z,50.90
2023-03-24T14:26:55.395Z,50.88
2023-03-24T14:29:52.531Z,50.83
2023-03-24T14:32:23.852Z,50.81
2023-03-24T14:35:00.326Z,50.88
2023-03-24T14:37:32.608Z,50.81
2023-03-24T14:40:04.043Z,50.89
2023-03-24T14:43:17.654Z,50.87
2023-03-24T14:46:06.992Z,50.75
2023-03-24T14:48:43.162Z,50.68
2023-03-24T14:51:36.626Z,50.72
2023-03-24T14:54:15.021Z,50.70
2023-03-24T14:56:52.100Z,50.68
2023-03-24T14:59:32.531Z,50.49
2023-03-24T15:02:13.428Z,50.55
2023-03-24T15:05:02.765Z,50.49
2023-03-24T15:07:34.196Z,50.57
2023-03-24T15:10:06.052Z,50.70
2023-03-24T15:12:37.584Z,50.69
2023-03-24T15:15:18.713Z,50.66
2023-03-24T15:17:51.999Z,50.69
2023-03-24T15:20:26.893Z,50.70
2023-03-24T15:23:08.974Z,50.66
2023-03-24T15:25:48.044Z,50.59
2023-03-24T15:28:23.857Z,50.62
2023-03-24T15:30:56.952Z,50.55
2023-03-24T15:33:32.763Z,50.71
2023-03-24T15:36:04.308Z,50.72
2023-03-24T15:38:37.638Z,50.64
2023-03-24T15:41:13.200Z,50.59
2023-03-24T15:43:54.449Z,50.58
2023-03-24T15:46:30.379Z,50.54
2023-03-24T15:49:04.263Z,50.55
2023-03-24T15:52:01.060Z,50.54
2023-03-24T15:54:41.354Z,50.50
2023-03-24T15:57:21.174Z,50.47
2023-03-24T15:59:58.231Z,50.49
2023-03-24T16:02:34.945Z,50.54
2023-03-24T16:05:14.696Z,50.56
2023-03-24T16:07:48.473Z,50.60
2023-03-24T16:10:40.458Z,50.60
2023-03-24T16:13:27.521Z,50.60
2023-03-24T16:16:03.771Z,50.76
2023-03-24T16:18:44.441Z,50.80
2023-03-24T16:21:18.037Z,50.85
2023-03-24T16:23:50.507Z,50.88
2023-03-24T16:26:25.344Z,50.95
2023-03-24T16:29:01.767Z,50.92
2023-03-24T16:31:35.878Z,50.98
2023-03-24T16:34:06.943Z,51.05
2023-03-24T16:36:38.122Z,51.08
2023-03-24T16:39:18.253Z,51.23
2023-03-24T16:41:50.078Z,51.46
2023-03-24T16:44:21.388Z,51.62
2023-03-24T16:46:55.106Z,51.98
2023-03-24T16:49:27.770Z,52.58
2023-03-24T16:52:00.562Z,53.37
2023-03-24T16:54:31.773Z,53.97
2023-03-24T16:57:03.572Z,54.55
2023-03-24T16:59:38.013Z,55.03
2023-03-24T17:02:13.279Z,55.49
2023-03-24T17:04:46.501Z,55.88
2023-03-24T17:07:20.415Z,56.42
2023-03-24T17:09:52.689Z,56.86
2023-03-24T17:12:23.700Z,57.28
2023-03-24T17:14:55.967Z,57.75
2023-03-24T17:17:29.989Z,58.01
2023-03-24T17:20:05.430Z,58.42
2023-03-24T17:22:37.989Z,58.73
2023-03-24T17:25:11.170Z,59.09
2023-03-24T17:27:42.433Z,59.52
2023-03-24T17:30:19.305Z,59.67
2023-03-24T17:32:59.798Z,59.90
2023-03-24T17:35:32.168Z,60.07
2023-03-24T17:38:03.858Z,60.34
2023-03-24T17:40:35.076Z,60.59
2023-03-24T17:43:11.446Z,60.87
2023-03-24T17:45:44.303Z,60.94
2023-03-24T17:48:15.971Z,61.24
2023-03-24T17:50:48.287Z,61.51
2023-03-24T17:53:26.354Z,61.69
2023-03-24T17:55:59.381Z,61.87
2023-03-24T17:58:30.986Z,62.21
2023-03-24T18:01:07.905Z,62.36
2023-03-24T18:03:40.741Z,62.66
2023-03-24T18:06:15.750Z,62.77
2023-03-24T18:08:50.630Z,62.93
2023-03-24T18:11:22.049Z,63.12
2023-03-24T18:13:53.482Z,63.51
2023-03-24T18:16:26.767Z,63.58
2023-03-24T18:18:58.421Z,63.76
2023-03-24T18:21:29.950Z,63.91
2023-03-24T18:24:01.301Z,64.11
2023-03-24T18:26:33.991Z,64.30
2023-03-24T18:29:07.032Z,64.43
2023-03-24T18:31:39.410Z,64.58
2023-03-24T18:34:10.710Z,64.87
2023-03-24T18:36:43.510Z,65.09
2023-03-24T18:39:14.897Z,65.36
2023-03-24T18:41:48.119Z,65.49
2023-03-24T18:44:19.323Z,65.48
2023-03-24T18:46:50.792Z,65.76
2023-03-24T18:49:21.842Z,65.95
2023-03-24T18:51:53.185Z,66.15
2023-03-24T18:54:24.438Z,66.26
2023-03-24T18:56:56.232Z,66.38
2023-03-24T18:59:28.198Z,66.46
2023-03-24T19:02:00.498Z,66.40
2023-03-24T19:04:33.061Z,66.51
2023-03-24T19:07:10.576Z,66.58
2023-03-24T19:09:42.256Z,66.63
2023-03-24T19:12:17.110Z,66.69
2023-03-24T19:14:56.824Z,66.73
2023-03-24T19:17:28.960Z,66.80
2023-03-24T19:20:05.357Z,66.85
2023-03-24T19:23:12.980Z,66.95
2023-03-24T19:25:57.194Z,66.97
2023-03-24T19:28:31.036Z,67.11
2023-03-24T19:34:14.082Z,67.28
2023-03-24T19:36:51.773Z,67.16
2023-03-24T19:40:15.821Z,67.45
2023-03-24T19:42:51.780Z,67.45
2023-03-24T19:46:03.895Z,67.52
2023-03-24T19:48:54.456Z,67.47
2023-03-24T19:51:43.785Z,67.53
2023-03-24T19:54:29.364Z,67.62
2023-03-24T19:57:21.947Z,67.60
2023-03-24T20:00:26.543Z,67.62
2023-03-24T20:03:01.925Z,67.66
2023-03-24T20:05:37.342Z,67.72
2023-03-24T20:08:16.367Z,67.75
2023-03-24T20:10:55.034Z,67.77
2023-03-24T20:13:38.487Z,67.82
2023-03-24T20:16:19.761Z,67.84
2023-03-24T20:18:58.426Z,67.83
2023-03-24T20:21:34.374Z,67.76
2023-03-24T20:24:15.213Z,67.86
2023-03-24T20:26:57.684Z,67.97
2023-03-24T20:29:28.836Z,67.93
2023-03-24T20:32:07.151Z,68.03
2023-03-24T20:34:41.049Z,68.21
2023-03-24T20:37:13.092Z,68.19
2023-03-24T20:39:46.743Z,68.16
2023-03-24T20:42:31.186Z,68.22
2023-03-24T20:45:05.185Z,68.28
2023-03-24T20:47:37.180Z,68.25
2023-03-24T20:50:10.138Z,68.31
2023-03-24T20:52:41.593Z,68.33
2023-03-24T20:55:13.574Z,68.43
2023-03-24T20:57:44.576Z,68.55
2023-03-24T21:00:20.498Z,68.63
2023-03-24T21:02:52.579Z,68.51
2023-03-24T21:05:23.728Z,68.47
2023-03-24T21:07:54.637Z,68.41
2023-03-24T21:10:26.011Z,68.40
2023-03-24T21:12:57.565Z,68.38
2023-03-24T21:15:29.025Z,68.50
2023-03-24T21:18:00.808Z,68.33
2023-03-24T21:20:31.828Z,68.08
2023-03-24T21:23:04.609Z,67.74
2023-03-24T21:25:36.065Z,67.52
2023-03-24T21:28:07.251Z,67.10
2023-03-24T21:30:39.666Z,66.89
2023-03-24T21:33:11.440Z,66.58
2023-03-24T21:35:42.405Z,66.44
2023-03-24T21:38:16.026Z,66.28
2023-03-24T21:40:47.042Z,66.26
2023-03-24T21:43:18.075Z,66.11
2023-03-24T21:45:54.017Z,65.96
2023-03-24T21:48:26.422Z,65.81
2023-03-24T21:50:58.893Z,65.85
2023-03-24T21:53:30.009Z,65.99
2023-03-24T21:56:04.780Z,66.02
2023-03-24T21:58:36.059Z,66.02
2023-03-24T22:01:07.297Z,66.13
2023-03-24T22:03:38.392Z,66.27
2023-03-24T22:06:13.020Z,66.27
2023-03-24T22:08:44.702Z,66.45
2023-03-24T22:11:18.779Z,66.47
2023-03-24T22:13:49.912Z,66.37
2023-03-24T22:16:21.105Z,66.44
2023-03-24T22:18:53.157Z,66.53
2023-03-24T22:21:24.022Z,66.45
2023-03-24T22:23:54.952Z,66.43
2023-03-24T22:26:25.918Z,66.48
2023-03-24T22:28:58.507Z,66.60
2023-03-24T22:31:29.453Z,66.62
2023-03-24T22:34:00.409Z,66.61
2023-03-24T22:36:31.523Z,66.50
2023-03-24T22:39:02.389Z,66.66
2023-03-24T22:41:33.416Z,66.73
2023-03-24T22:44:04.648Z,66.96
2023-03-24T22:46:35.707Z,66.98
2023-03-24T22:49:07.040Z,67.12
2023-03-24T22:51:38.089Z,67.17
2023-03-24T22:54:09.101Z,67.22
2023-03-24T22:56:40.382Z,67.29
2023-03-24T22:59:11.695Z,67.25
2023-03-24T23:01:42.944Z,67.14
2023-03-24T23:04:14.784Z,67.08
2023-03-24T23:06:46.939Z,67.22
2023-03-24T23:09:18.201Z,67.17
2023-03-24T23:11:49.087Z,67.21
2023-03-24T23:14:19.976Z,67.10
2023-03-24T23:16:50.885Z,67.04
2023-03-24T23:19:22.132Z,66.91
2023-03-24T23:21:53.065Z,66.92
2023-03-24T23:24:24.098Z,66.87
2023-03-24T23:26:55.098Z,66.85
2023-03-24T23:29:26.318Z,66.83
2023-03-24T23:31:57.279Z,66.88
2023-03-24T23:34:28.895Z,66.87
2023-03-24T23:37:03.719Z,66.86
2023-03-24T23:39:36.904Z,66.88
2023-03-24T23:42:08.086Z,66.90
2023-03-24T23:44:39.718Z,66.92
2023-03-24T23:47:10.629Z,67.01
2023-03-24T23:49:43.953Z,67.02
2023-03-24T23:52:15.064Z,67.06
2023-03-24T23:54:46.668Z,67.06
2023-03-24T23:57:18.309Z,67.10
2023-03-24T23:59:49.675Z,67.20
